createdAt,value
2023-01-19T00:00:30.099Z,98337.44
2023-01-19T00:02:56.744Z,98335.09
2023-01-19T00:05:23.298Z,98340.16
2023-01-19T00:10:34.169Z,98346.63
2023-01-19T00:13:01.144Z,98347.16
2023-01-19T00:15:29.184Z,98342.94
2023-01-19T00:17:55.779Z,98338.69
2023-01-19T00:20:22.354Z,98332.06
2023-01-19T00:22:51.005Z,98333.44
2023-01-19T00:25:17.764Z,98337.13
2023-01-19T00:27:49.374Z,98337.69
2023-01-19T00:30:16.486Z,98342.75
2023-01-19T00:32:43.052Z,98334.00
2023-01-19T00:35:09.660Z,98335.91
2023-01-19T00:37:36.192Z,98337.22
2023-01-19T00:40:02.781Z,98327.13
2023-01-19T00:42:41.069Z,98337.25
2023-01-19T00:45:10.068Z,98334.59
2023-01-19T00:47:36.739Z,98334.06
2023-01-19T00:50:03.557Z,98346.31
2023-01-19T00:52:30.137Z,98342.59
2023-01-19T00:54:56.693Z,98342.59
2023-01-19T00:57:23.575Z,98345.25
2023-01-19T00:59:50.326Z,98351.09
2023-01-19T01:02:17.260Z,98352.72
2023-01-19T01:04:43.922Z,98349.50
2023-01-19T01:07:10.600Z,98352.72
2023-01-19T01:09:38.170Z,98351.66
2023-01-19T01:12:05.872Z,98353.78
2023-01-19T01:14:32.859Z,98351.66
2023-01-19T01:17:00.677Z,98356.72
2023-01-19T01:19:27.468Z,98363.38
2023-01-19T01:21:54.164Z,98354.63
2023-01-19T01:24:20.843Z,98358.88
2023-01-19T01:26:47.509Z,98359.66
2023-01-19T01:29:14.108Z,98366.84
2023-01-19T01:31:41.010Z,98374.84
2023-01-19T01:34:08.277Z,98367.38
2023-01-19T01:36:35.591Z,98377.22
2023-01-19T01:39:02.506Z,98381.47
2023-01-19T01:41:29.143Z,98379.13
2023-01-19T01:44:02.055Z,98387.09
2023-01-19T01:46:31.171Z,98390.56
2023-01-19T01:49:08.645Z,98391.59
2023-01-19T01:51:42.297Z,98390.56
2023-01-19T01:54:19.000Z,98387.63
2023-01-19T01:56:49.321Z,98391.13
2023-01-19T01:59:29.604Z,98385.28
2023-01-19T02:02:18.192Z,98392.19
2023-01-19T02:04:56.157Z,98394.31
2023-01-19T02:07:52.107Z,98405.75
2023-01-19T02:10:37.482Z,98393.25
2023-01-19T02:13:22.568Z,98405.50
2023-01-19T02:15:52.679Z,98395.41
2023-01-19T02:18:24.460Z,98404.44
2023-01-19T02:21:00.336Z,98410.59
2023-01-19T02:23:55.331Z,98413.19
2023-01-19T02:26:36.416Z,98409.22
2023-01-19T02:29:08.752Z,98403.63
2023-01-19T02:31:39.045Z,98410.00
2023-01-19T02:34:08.445Z,98410.53
2023-01-19T02:36:39.915Z,98411.88
2023-01-19T02:39:09.750Z,98407.63
2023-01-19T02:41:42.725Z,98412.13
2023-01-19T02:44:11.085Z,98419.84
2023-01-19T02:46:38.548Z,98418.81
2023-01-19T02:49:05.250Z,98410.84
2023-01-19T02:51:32.300Z,98414.31
2023-01-19T02:54:04.687Z,98410.84
2023-01-19T02:56:34.848Z,98422.03
2023-01-19T02:59:25.855Z,98411.91
2023-01-19T03:02:08.968Z,98417.25
2023-01-19T03:04:57.515Z,98429.22
2023-01-19T03:08:01.445Z,98423.09
2023-01-19T03:10:31.033Z,98426.28
2023-01-19T03:13:13.816Z,98422.56
2023-01-19T03:16:23.785Z,98427.41
2023-01-19T03:19:08.874Z,98421.56
2023-01-19T03:21:39.305Z,98420.22
2023-01-19T03:24:08.524Z,98420.50
2023-01-19T03:26:43.124Z,98430.06
2023-01-19T03:29:13.613Z,98426.34
2023-01-19T03:31:43.390Z,98428.47
2023-01-19T03:34:13.703Z,98427.09
2023-01-19T03:36:51.652Z,98425.75
2023-01-19T03:39:22.692Z,98418.84
2023-01-19T03:41:53.854Z,98421.25
2023-01-19T03:44:20.439Z,98413.56
2023-01-19T03:46:48.111Z,98408.78
2023-01-19T03:49:14.813Z,98402.94
2023-01-19T03:51:41.524Z,98411.44
2023-01-19T03:54:10.355Z,98421.03
2023-01-19T03:56:37.285Z,98415.19
2023-01-19T03:59:05.674Z,98424.78
2023-01-19T04:01:32.787Z,98422.66
2023-01-19T04:03:59.431Z,98431.69
2023-01-19T04:06:27.083Z,98427.97
2023-01-19T04:08:53.945Z,98432.78
2023-01-19T04:11:20.881Z,98436.50
2023-01-19T04:13:47.941Z,98432.78
2023-01-19T04:16:19.898Z,98425.84
2023-01-19T04:18:47.415Z,98425.06
2023-01-19T04:21:14.573Z,98428.81
2023-01-19T04:23:41.168Z,98436.53
2023-01-19T04:26:09.222Z,98426.38
2023-01-19T04:28:37.254Z,98429.03
2023-01-19T04:31:07.895Z,98431.47
2023-01-19T04:33:35.099Z,98424.25
2023-01-19T04:36:02.260Z,98437.03
2023-01-19T04:38:28.851Z,98435.94
2023-01-19T04:40:55.475Z,98423.41
2023-01-19T04:43:23.361Z,98437.53
2023-01-19T04:45:50.882Z,98433.81
2023-01-19T04:48:18.594Z,98438.31
2023-01-19T04:50:45.281Z,98439.66
2023-01-19T04:53:13.865Z,98430.59
2023-01-19T04:55:40.739Z,98437.53
2023-01-19T04:58:07.359Z,98425.28
2023-01-19T05:00:34.114Z,98427.97
2023-01-19T05:03:01.610Z,98425.81
2023-01-19T05:05:28.688Z,98426.34
2023-01-19T05:07:55.570Z,98426.06
2023-01-19T05:10:22.311Z,98425.28
2023-01-19T05:12:48.933Z,98424.75
2023-01-19T05:15:15.508Z,98427.09
2023-01-19T05:17:42.066Z,98424.16
2023-01-19T05:20:12.533Z,98425.22
2023-01-19T05:22:40.005Z,98420.41
2023-01-19T05:25:08.816Z,98419.88
2023-01-19T05:27:36.643Z,98426.03
2023-01-19T05:30:05.096Z,98429.25
2023-01-19T05:32:31.660Z,98434.88
2023-01-19T05:34:58.309Z,98438.06
2023-01-19T05:37:25.049Z,98443.09
2023-01-19T05:39:51.861Z,98439.38
2023-01-19T05:42:18.401Z,98437.56
2023-01-19T05:44:44.972Z,98437.84
2023-01-19T05:47:11.824Z,98443.94
2023-01-19T05:49:38.414Z,98447.97
2023-01-19T05:52:04.995Z,98450.91
2023-01-19T05:54:31.583Z,98437.09
2023-01-19T05:56:58.324Z,98447.84
2023-01-19T05:59:24.995Z,98457.44
2023-01-19T06:01:52.489Z,98450.97
2023-01-19T06:04:20.166Z,98446.97
2023-01-19T06:06:50.388Z,98439.81
2023-01-19T06:09:17.794Z,98453.31
2023-01-19T06:11:45.309Z,98453.31
2023-01-19T06:14:12.230Z,98464.34
2023-01-19T06:16:39.106Z,98465.19
2023-01-19T06:19:06.096Z,98460.44
2023-01-19T06:21:34.364Z,98463.34
2023-01-19T06:24:01.085Z,98462.84
2023-01-19T06:26:27.693Z,98464.41
2023-01-19T06:28:55.239Z,98478.28
2023-01-19T06:31:22.016Z,98472.91
2023-01-19T06:33:48.700Z,98474.78
2023-01-19T06:36:15.306Z,98475.56
2023-01-19T06:38:41.998Z,98480.09
2023-01-19T06:41:08.603Z,98477.16
2023-01-19T06:43:35.314Z,98482.50
2023-01-19T06:46:02.307Z,98497.66
2023-01-19T06:48:28.928Z,98491.03
2023-01-19T06:50:57.806Z,98501.16
2023-01-19T06:53:27.926Z,98504.84
2023-01-19T06:55:59.296Z,98501.66
2023-01-19T06:58:26.143Z,98500.84
2023-01-19T07:00:52.935Z,98513.63
2023-01-19T07:03:22.111Z,98518.41
2023-01-19T07:05:56.853Z,98516.31
2023-01-19T07:08:24.206Z,98527.22
2023-01-19T07:11:25.492Z,98521.34
2023-01-19T07:13:38.576Z,98530.16
2023-01-19T07:16:08.320Z,98527.50
2023-01-19T07:18:35.713Z,98524.84
2023-01-19T07:21:02.425Z,98530.16
2023-01-19T07:23:31.820Z,98529.63
2023-01-19T07:26:00.953Z,98534.69
2023-01-19T07:28:31.711Z,98532.53
2023-01-19T07:30:58.517Z,98531.22
2023-01-19T07:33:26.245Z,98530.16
2023-01-19T07:35:53.565Z,98545.63
2023-01-19T07:38:20.656Z,98548.00
2023-01-19T07:40:47.406Z,98549.06
2023-01-19T07:43:14.651Z,98550.69
2023-01-19T07:45:41.341Z,98561.88
2023-01-19T07:48:07.943Z,98556.06
2023-01-19T07:50:34.601Z,98553.91
2023-01-19T07:53:08.870Z,98558.44
2023-01-19T07:55:35.850Z,98561.63
2023-01-19T07:58:06.515Z,98555.00
2023-01-19T08:00:34.407Z,98561.88
2023-01-19T08:03:03.375Z,98559.22
2023-01-19T08:05:30.553Z,98567.19
2023-01-19T08:07:58.168Z,98563.47
2023-01-19T08:10:26.813Z,98570.97
2023-01-19T08:14:02.148Z,98569.63
2023-01-19T08:16:29.003Z,98578.97
2023-01-19T08:18:55.560Z,98576.31
2023-01-19T08:21:22.241Z,98595.81
2023-01-19T08:23:55.931Z,98587.00
2023-01-19T08:26:29.670Z,98592.34
2023-01-19T08:28:59.058Z,98584.88
2023-01-19T08:31:26.458Z,98585.69
2023-01-19T08:33:53.209Z,98587.06
2023-01-19T08:36:21.385Z,98592.91
2023-01-19T08:38:48.573Z,98591.84
2023-01-19T08:41:17.079Z,98597.72
2023-01-19T08:43:45.496Z,98599.56
2023-01-19T08:46:12.701Z,98608.09
2023-01-19T08:48:40.075Z,98605.72
2023-01-19T08:51:06.798Z,98611.03
2023-01-19T08:53:34.186Z,98605.13
2023-01-19T08:56:02.072Z,98605.41
2023-01-19T08:58:29.139Z,98612.06
2023-01-19T09:00:56.313Z,98611.03
2023-01-19T09:03:23.190Z,98606.25
2023-01-19T09:05:50.441Z,98605.72
2023-01-19T09:08:17.457Z,98610.28
2023-01-19T09:10:47.007Z,98621.22
2023-01-19T09:13:14.516Z,98618.00
2023-01-19T09:15:43.287Z,98619.13
2023-01-19T09:18:16.692Z,98625.00
2023-01-19T09:20:45.357Z,98625.00
2023-01-19T09:23:13.863Z,98620.72
2023-01-19T09:25:42.011Z,98631.94
2023-01-19T09:28:10.938Z,98626.59
2023-01-19T09:30:39.447Z,98639.41
2023-01-19T09:33:08.149Z,98634.59
2023-01-19T09:35:35.202Z,98641.53
2023-01-19T09:38:02.152Z,98640.44
2023-01-19T09:40:29.335Z,98629.25
2023-01-19T09:43:11.868Z,98630.88
2023-01-19T09:45:48.178Z,98631.69
2023-01-19T09:48:52.369Z,98633.81
2023-01-19T09:51:23.290Z,98630.63
2023-01-19T09:53:56.481Z,98640.00
2023-01-19T09:56:24.166Z,98644.25
2023-01-19T09:58:51.638Z,98651.72
2023-01-19T10:01:52.630Z,98648.25
2023-01-19T10:04:32.073Z,98650.66
2023-01-19T10:07:23.513Z,98657.59
2023-01-19T10:09:59.045Z,98647.47
2023-01-19T10:12:37.860Z,98649.06
2023-01-19T10:15:16.527Z,98649.88
2023-01-19T10:18:17.646Z,98649.06
2023-01-19T10:20:50.127Z,98646.94
2023-01-19T10:23:37.266Z,98643.19
2023-01-19T10:26:12.825Z,98649.34
2023-01-19T10:28:40.803Z,98646.41
2023-01-19T10:31:09.877Z,98642.66
2023-01-19T10:33:37.099Z,98644.81
2023-01-19T10:36:17.491Z,98645.38
2023-01-19T10:38:44.358Z,98642.16
2023-01-19T10:41:39.398Z,98643.75
2023-01-19T10:44:07.585Z,98644.00
2023-01-19T10:46:37.396Z,98637.34
2023-01-19T10:49:04.952Z,98642.13
2023-01-19T10:51:31.596Z,98640.53
2023-01-19T10:54:01.908Z,98632.28
2023-01-19T10:56:35.533Z,98625.88
2023-01-19T10:59:05.168Z,98634.69
2023-01-19T11:01:36.014Z,98638.94
2023-01-19T11:04:21.803Z,98638.94
2023-01-19T11:06:48.405Z,98636.53
2023-01-19T11:09:20.985Z,98634.94
2023-01-19T11:11:52.926Z,98635.22
2023-01-19T11:14:23.334Z,98647.50
2023-01-19T11:16:58.137Z,98633.88
2023-01-19T11:19:32.458Z,98632.03
2023-01-19T11:22:16.763Z,98625.88
2023-01-19T11:24:44.230Z,98634.69
2023-01-19T11:27:10.830Z,98636.53
2023-01-19T11:29:38.983Z,98626.69
2023-01-19T11:32:22.070Z,98622.13
2023-01-19T11:34:49.585Z,98617.06
2023-01-19T11:37:16.107Z,98617.31
2023-01-19T11:39:49.327Z,98616.50
2023-01-19T11:42:17.577Z,98618.94
2023-01-19T11:45:23.309Z,98615.16
2023-01-19T11:47:51.809Z,98612.25
2023-01-19T11:50:29.744Z,98617.31
2023-01-19T11:53:24.258Z,98615.47
2023-01-19T11:56:02.932Z,98620.28
2023-01-19T11:58:31.534Z,98615.75
2023-01-19T12:01:01.835Z,98605.06
2023-01-19T12:03:54.599Z,98612.78
2023-01-19T12:06:47.841Z,98609.06
2023-01-19T12:09:22.494Z,98613.34
2023-01-19T12:12:05.092Z,98603.97
2023-01-19T12:14:35.137Z,98613.34
2023-01-19T12:17:05.785Z,98610.13
2023-01-19T12:19:55.027Z,98611.72
2023-01-19T12:22:24.025Z,98613.31
2023-01-19T12:25:02.988Z,98603.19
2023-01-19T12:27:44.363Z,98598.94
2023-01-19T12:30:23.789Z,98602.38
2023-01-19T12:32:53.857Z,98602.13
2023-01-19T12:35:54.699Z,98605.88
2023-01-19T12:38:30.075Z,98603.72
2023-01-19T12:41:16.665Z,98608.25
2023-01-19T12:43:43.426Z,98594.63
2023-01-19T12:46:31.053Z,98590.63
2023-01-19T12:49:19.741Z,98597.03
2023-01-19T12:51:46.884Z,98598.38
2023-01-19T12:54:32.698Z,98596.78
2023-01-19T12:57:06.410Z,98596.78
2023-01-19T12:59:35.418Z,98602.66
2023-01-19T13:02:20.026Z,98593.31
2023-01-19T13:05:28.535Z,98595.44
2023-01-19T13:08:08.386Z,98588.75
2023-01-19T13:10:59.372Z,98591.72
2023-01-19T13:13:29.050Z,98586.09
2023-01-19T13:15:57.956Z,98587.16
2023-01-19T13:18:27.611Z,98588.75
2023-01-19T13:21:12.567Z,98584.50
2023-01-19T13:23:51.136Z,98585.28
2023-01-19T13:26:20.884Z,98589.00
2023-01-19T13:28:52.341Z,98591.13
2023-01-19T13:31:19.897Z,98589.28
2023-01-19T13:33:50.969Z,98587.69
2023-01-19T13:36:38.420Z,98583.66
2023-01-19T13:39:12.329Z,98587.13
2023-01-19T13:41:41.224Z,98592.50
2023-01-19T13:44:15.465Z,98587.16
2023-01-19T13:46:42.933Z,98591.44
2023-01-19T13:49:19.137Z,98590.88
2023-01-19T13:51:45.730Z,98591.41
2023-01-19T13:54:17.762Z,98595.69
2023-01-19T13:56:50.360Z,98590.09
2023-01-19T13:59:16.976Z,98591.41
2023-01-19T14:01:46.033Z,98590.88
2023-01-19T14:04:32.449Z,98604.22
2023-01-19T14:07:02.913Z,98599.16
2023-01-19T14:09:29.568Z,98594.63
2023-01-19T14:12:11.084Z,98590.88
2023-01-19T14:14:38.580Z,98596.75
2023-01-19T14:17:18.192Z,98594.63
2023-01-19T14:19:53.228Z,98590.09
2023-01-19T14:22:19.970Z,98589.56
2023-01-19T14:24:46.887Z,98579.97
2023-01-19T14:27:22.697Z,98582.34
2023-01-19T14:29:53.567Z,98584.75
2023-01-19T14:32:25.448Z,98581.03
2023-01-19T14:35:13.185Z,98590.09
2023-01-19T14:37:50.915Z,98589.28
2023-01-19T14:40:20.433Z,98585.56
2023-01-19T14:43:03.169Z,98582.91
2023-01-19T14:45:36.983Z,98584.75
2023-01-19T14:48:07.021Z,98576.50
2023-01-19T14:50:42.838Z,98586.09
2023-01-19T14:53:25.733Z,98589.84
2023-01-19T14:56:02.403Z,98580.22
2023-01-19T14:58:31.410Z,98590.34
2023-01-19T15:00:58.519Z,98587.44
2023-01-19T15:03:38.569Z,98594.09
2023-01-19T15:06:16.181Z,98585.56
2023-01-19T15:08:45.010Z,98584.75
2023-01-19T15:11:26.727Z,98586.09
2023-01-19T15:13:55.226Z,98590.63
2023-01-19T15:16:23.255Z,98589.84
2023-01-19T15:18:49.838Z,98592.50
2023-01-19T15:21:23.279Z,98596.25
2023-01-19T15:23:50.382Z,98598.63
2023-01-19T15:26:23.132Z,98596.75
2023-01-19T15:28:50.625Z,98604.22
2023-01-19T15:31:19.812Z,98595.97
2023-01-19T15:33:46.956Z,98601.84
2023-01-19T15:36:17.841Z,98602.63
2023-01-19T15:38:44.797Z,98599.97
2023-01-19T15:41:14.004Z,98594.38
2023-01-19T15:43:40.691Z,98595.94
2023-01-19T15:46:07.873Z,98592.50
2023-01-19T15:48:34.692Z,98594.09
2023-01-19T15:51:01.271Z,98600.25
2023-01-19T15:53:27.876Z,98592.50
2023-01-19T15:55:56.895Z,98596.22
2023-01-19T15:58:24.333Z,98598.38
2023-01-19T16:00:55.836Z,98589.81
2023-01-19T16:03:24.635Z,98593.81
2023-01-19T16:05:51.575Z,98596.22
2023-01-19T16:08:18.352Z,98595.16
2023-01-19T16:10:44.959Z,98595.69
2023-01-19T16:13:11.922Z,98599.69
2023-01-19T16:15:40.082Z,98601.03
2023-01-19T16:18:06.717Z,98599.97
2023-01-19T16:20:33.332Z,98598.63
2023-01-19T16:23:13.819Z,98605.59
2023-01-19T16:25:41.348Z,98607.97
2023-01-19T16:28:08.425Z,98604.22
2023-01-19T16:30:35.298Z,98605.84
2023-01-19T16:33:01.977Z,98609.56
2023-01-19T16:35:28.624Z,98603.69
2023-01-19T16:37:55.208Z,98614.63
2023-01-19T16:40:21.936Z,98606.91
2023-01-19T16:42:48.580Z,98607.44
2023-01-19T16:45:15.211Z,98612.25
2023-01-19T16:47:41.873Z,98607.44
2023-01-19T16:50:11.903Z,98620.78
2023-01-19T16:52:38.819Z,98614.38
2023-01-19T16:55:09.417Z,98621.84
2023-01-19T16:57:38.886Z,98622.09
2023-01-19T17:00:09.381Z,98634.66
2023-01-19T17:02:36.404Z,98626.41
2023-01-19T17:05:03.025Z,98628.25
2023-01-19T17:07:29.626Z,98632.28
2023-01-19T17:09:56.261Z,98633.63
2023-01-19T17:12:22.890Z,98632.56
2023-01-19T17:14:49.505Z,98637.59
2023-01-19T17:17:16.061Z,98635.75
2023-01-19T17:19:42.843Z,98633.63
2023-01-19T17:22:09.382Z,98639.22
2023-01-19T17:24:35.959Z,98643.50
2023-01-19T17:27:02.539Z,98645.91
2023-01-19T17:29:29.173Z,98639.78
2023-01-19T17:31:55.722Z,98645.38
2023-01-19T17:34:22.309Z,98646.97
2023-01-19T17:36:51.233Z,98650.72
2023-01-19T17:39:18.626Z,98646.19
2023-01-19T17:41:45.286Z,98646.44
2023-01-19T17:44:12.059Z,98645.38
2023-01-19T17:46:38.868Z,98652.03
2023-01-19T17:49:07.395Z,98659.25
2023-01-19T17:51:34.696Z,98653.38
2023-01-19T17:54:01.341Z,98660.31
2023-01-19T17:56:30.437Z,98660.84
2023-01-19T17:58:58.057Z,98658.19
2023-01-19T18:01:27.326Z,98660.03
2023-01-19T18:03:54.264Z,98657.38
2023-01-19T18:06:21.683Z,98657.66
2023-01-19T18:08:49.537Z,98660.84
2023-01-19T18:11:17.958Z,98658.72
2023-01-19T18:13:45.842Z,98654.97
2023-01-19T18:16:34.503Z,98661.91
2023-01-19T18:19:01.197Z,98659.78
2023-01-19T18:21:28.872Z,98658.19
2023-01-19T18:24:01.803Z,98655.22
2023-01-19T18:26:28.774Z,98660.56
2023-01-19T18:28:56.821Z,98655.22
2023-01-19T18:31:24.680Z,98659.53
2023-01-19T18:33:51.260Z,98659.78
2023-01-19T18:36:18.211Z,98657.13
2023-01-19T18:38:45.464Z,98662.97
2023-01-19T18:41:15.008Z,98667.25
2023-01-19T18:43:41.964Z,98657.66
2023-01-19T18:46:09.605Z,98665.66
2023-01-19T18:48:37.720Z,98663.47
2023-01-19T18:51:09.520Z,98665.84
2023-01-19T18:53:36.393Z,98674.38
2023-01-19T18:56:03.627Z,98673.56
2023-01-19T18:58:31.791Z,98669.28
2023-01-19T19:01:00.123Z,98671.94
2023-01-19T19:03:27.164Z,98672.47
2023-01-19T19:05:53.827Z,98667.91
2023-01-19T19:08:20.470Z,98668.44
2023-01-19T19:10:47.109Z,98666.84
2023-01-19T19:13:17.726Z,98669.75
2023-01-19T19:15:44.513Z,98670.81
2023-01-19T19:18:14.196Z,98671.88
2023-01-19T19:20:44.425Z,98662.81
2023-01-19T19:23:11.940Z,98664.16
2023-01-19T19:25:38.795Z,98667.06
2023-01-19T19:28:05.805Z,98674.00
2023-01-19T19:30:34.624Z,98670.28
2023-01-19T19:33:01.340Z,98673.47
2023-01-19T19:35:27.965Z,98679.34
2023-01-19T19:37:57.565Z,98676.69
2023-01-19T19:40:28.495Z,98676.97
2023-01-19T19:42:57.591Z,98682.03
2023-01-19T19:45:25.311Z,98684.44
2023-01-19T19:47:51.874Z,98682.03
2023-01-19T19:50:18.636Z,98684.44
2023-01-19T19:52:45.325Z,98687.88
2023-01-19T19:55:12.715Z,98693.72
2023-01-19T19:57:39.469Z,98700.63
2023-01-19T20:00:06.756Z,98700.06
2023-01-19T20:02:33.350Z,98704.31
2023-01-19T20:05:00.165Z,98700.00
2023-01-19T20:07:26.769Z,98695.19
2023-01-19T20:09:55.092Z,98702.66
2023-01-19T20:12:22.196Z,98701.56
2023-01-19T20:14:48.877Z,98707.38
2023-01-19T20:17:15.644Z,98702.88
2023-01-19T20:19:43.852Z,98705.28
2023-01-19T20:22:10.395Z,98709.84
2023-01-19T20:24:37.053Z,98708.53
2023-01-19T20:27:03.925Z,98710.69
2023-01-19T20:29:30.685Z,98716.81
2023-01-19T20:31:57.244Z,98712.28
2023-01-19T20:34:29.102Z,98716.00
2023-01-19T20:36:56.578Z,98719.22
2023-01-19T20:39:24.551Z,98720.81
2023-01-19T20:41:52.696Z,98719.75
2023-01-19T20:44:22.365Z,98717.59
2023-01-19T20:46:49.851Z,98723.47
2023-01-19T20:49:16.737Z,98718.13
2023-01-19T20:51:45.277Z,98723.69
2023-01-19T20:54:13.467Z,98729.31
2023-01-19T20:56:41.767Z,98734.88
2023-01-19T20:59:10.323Z,98730.38
2023-01-19T21:01:37.298Z,98726.66
2023-01-19T21:04:04.132Z,98730.91
2023-01-19T21:06:30.718Z,98730.38
2023-01-19T21:08:57.683Z,98729.81
2023-01-19T21:11:25.047Z,98731.94
2023-01-19T21:13:55.691Z,98742.63
2023-01-19T21:16:24.397Z,98745.53
2023-01-19T21:18:51.304Z,98744.69
2023-01-19T21:21:29.816Z,98753.50
2023-01-19T21:23:58.237Z,98755.38
2023-01-19T21:26:24.866Z,98766.03
2023-01-19T21:28:51.580Z,98766.03
2023-01-19T21:31:18.421Z,98760.16
2023-01-19T21:33:45.178Z,98763.34
2023-01-19T21:36:11.864Z,98771.28
2023-01-19T21:38:39.027Z,98774.72
2023-01-19T21:41:12.003Z,98774.69
2023-01-19T21:43:41.784Z,98783.97
2023-01-19T21:46:14.379Z,98778.59
2023-01-19T21:48:42.192Z,98789.53
2023-01-19T21:51:09.115Z,98794.03
2023-01-19T21:53:35.733Z,98802.03
2023-01-19T21:56:02.368Z,98799.09
2023-01-19T21:58:28.964Z,98813.44
2023-01-19T22:01:00.616Z,98807.34
2023-01-19T22:03:28.496Z,98819.59
2023-01-19T22:05:58.447Z,98811.06
2023-01-19T22:08:25.136Z,98823.00
2023-01-19T22:10:51.747Z,98822.44
2023-01-19T22:13:18.461Z,98825.13
2023-01-19T22:15:45.031Z,98829.66
2023-01-19T22:18:11.663Z,98834.72
2023-01-19T22:20:38.328Z,98831.81
2023-01-19T22:23:04.946Z,98829.69
2023-01-19T22:25:33.076Z,98830.25
2023-01-19T22:27:59.729Z,98827.59
2023-01-19T22:30:26.593Z,98829.44
2023-01-19T22:32:53.482Z,98834.75
2023-01-19T22:35:21.267Z,98840.09
2023-01-19T22:37:47.967Z,98838.75
2023-01-19T22:40:14.599Z,98843.25
2023-01-19T22:42:45.284Z,98841.09
2023-01-19T22:45:12.107Z,98834.16
2023-01-19T22:47:38.909Z,98841.06
2023-01-19T22:50:06.010Z,98847.66
2023-01-19T22:52:32.614Z,98847.38
2023-01-19T22:55:00.032Z,98842.81
2023-01-19T22:57:26.583Z,98853.66
2023-01-19T22:59:53.165Z,98856.50
2023-01-19T23:02:20.895Z,98857.50
2023-01-19T23:04:47.732Z,98856.34
2023-01-19T23:07:14.435Z,98854.66
2023-01-19T23:09:41.064Z,98861.47
2023-01-19T23:12:07.708Z,98866.75
2023-01-19T23:14:34.716Z,98862.41
2023-01-19T23:17:01.306Z,98871.91
2023-01-19T23:19:27.846Z,98865.47
2023-01-19T23:21:54.418Z,98865.97
2023-01-19T23:24:21.057Z,98866.47
2023-01-19T23:26:49.591Z,98873.41
2023-01-19T23:29:16.225Z,98868.56
2023-01-19T23:31:46.442Z,98872.28
2023-01-19T23:34:13.654Z,98884.47
2023-01-19T23:36:41.837Z,98879.38
2023-01-19T23:39:20.323Z,98884.38
2023-01-19T23:41:47.579Z,98880.66
2023-01-19T23:44:14.726Z,98883.31
2023-01-19T23:46:41.273Z,98883.91
2023-01-19T23:49:07.954Z,98888.75
2023-01-19T23:51:34.914Z,98883.44
2023-01-19T23:54:01.616Z,98893.00
2023-01-19T23:56:31.808Z,98883.97
2023-01-19T23:59:04.667Z,98891.41
